sensor_id;sensor_type;location;lat;lon;timestamp;P1;durP1;ratioP1;P2;durP2;ratioP2
4754;SDS011;2391;47.212;7.542;2022-12-24T00:02:21;1.63;;;1.30;;
4754;SDS011;2391;47.212;7.542;2022-12-24T00:04:47;2.33;;;1.33;;
4754;SDS011;2391;47.212;7.542;2022-12-24T00:07:13;4.63;;;1.40;;
4754;SDS011;2391;47.212;7.542;2022-12-24T00:09:39;1.87;;;1.30;;
4754;SDS011;2391;47.212;7.542;2022-12-24T00:12:05;1.90;;;1.50;;
4754;SDS011;2391;47.212;7.542;2022-12-24T00:14:32;1.93;;;1.40;;
4754;SDS011;2391;47.212;7.542;2022-12-24T00:16:58;1.80;;;1.70;;
4754;SDS011;2391;47.212;7.542;2022-12-24T00:19:23;1.40;;;1.30;;
4754;SDS011;2391;47.212;7.542;2022-12-24T00:21:49;1.20;;;1.20;;
4754;SDS011;2391;47.212;7.542;2022-12-24T00:24:15;1.87;;;1.70;;
4754;SDS011;2391;47.212;7.542;2022-12-24T00:26:41;2.20;;;1.87;;
4754;SDS011;2391;47.212;7.542;2022-12-24T00:29:07;1.60;;;1.43;;
4754;SDS011;2391;47.212;7.542;2022-12-24T00:31:34;1.40;;;1.30;;
4754;SDS011;2391;47.212;7.542;2022-12-24T00:34:00;1.57;;;1.30;;
4754;SDS011;2391;47.212;7.542;2022-12-24T00:36:26;1.60;;;1.50;;
4754;SDS011;2391;47.212;7.542;2022-12-24T00:38:51;1.70;;;1.60;;
4754;SDS011;2391;47.212;7.542;2022-12-24T00:41:18;2.23;;;1.40;;
4754;SDS011;2391;47.212;7.542;2022-12-24T00:43:59;2.07;;;1.20;;
4754;SDS011;2391;47.212;7.542;2022-12-24T00:46:31;1.93;;;1.60;;
4754;SDS011;2391;47.212;7.542;2022-12-24T00:48:58;1.63;;;1.53;;
4754;SDS011;2391;47.212;7.542;2022-12-24T00:51:25;2.00;;;1.30;;
4754;SDS011;2391;47.212;7.542;2022-12-24T00:53:51;3.27;;;1.73;;
4754;SDS011;2391;47.212;7.542;2022-12-24T00:56:18;3.30;;;1.87;;
4754;SDS011;2391;47.212;7.542;2022-12-24T00:58:45;5.10;;;1.97;;
4754;SDS011;2391;47.212;7.542;2022-12-24T01:01:11;3.20;;;1.60;;
4754;SDS011;2391;47.212;7.542;2022-12-24T01:03:37;2.30;;;1.60;;
4754;SDS011;2391;47.212;7.542;2022-12-24T01:06:05;1.97;;;1.40;;
4754;SDS011;2391;47.212;7.542;2022-12-24T01:08:33;1.87;;;1.77;;
4754;SDS011;2391;47.212;7.542;2022-12-24T01:11:00;2.00;;;1.90;;
4754;SDS011;2391;47.212;7.542;2022-12-24T01:13:27;1.63;;;1.53;;
4754;SDS011;2391;47.212;7.542;2022-12-24T01:15:53;5.63;;;2.10;;
4754;SDS011;2391;47.212;7.542;2022-12-24T01:18:19;2.20;;;1.53;;
4754;SDS011;2391;47.212;7.542;2022-12-24T01:20:45;1.43;;;1.20;;
4754;SDS011;2391;47.212;7.542;2022-12-24T01:23:13;4.03;;;1.83;;
4754;SDS011;2391;47.212;7.542;2022-12-24T01:25:39;4.90;;;1.40;;
4754;SDS011;2391;47.212;7.542;2022-12-24T01:28:06;1.53;;;1.43;;
4754;SDS011;2391;47.212;7.542;2022-12-24T01:30:32;3.17;;;1.40;;
4754;SDS011;2391;47.212;7.542;2022-12-24T01:32:58;1.93;;;1.60;;
4754;SDS011;2391;47.212;7.542;2022-12-24T01:35:24;2.10;;;1.90;;
4754;SDS011;2391;47.212;7.542;2022-12-24T01:37:50;1.37;;;1.27;;
4754;SDS011;2391;47.212;7.542;2022-12-24T01:40:16;2.70;;;1.17;;
4754;SDS011;2391;47.212;7.542;2022-12-24T01:43:04;6.27;;;1.40;;
4754;SDS011;2391;47.212;7.542;2022-12-24T01:45:49;1.50;;;1.10;;
4754;SDS011;2391;47.212;7.542;2022-12-24T01:53:46;1.17;;;1.07;;
4754;SDS011;2391;47.212;7.542;2022-12-24T01:56:15;2.10;;;0.97;;
4754;SDS011;2391;47.212;7.542;2022-12-24T01:58:43;1.00;;;1.00;;
4754;SDS011;2391;47.212;7.542;2022-12-24T02:01:12;1.07;;;0.97;;
4754;SDS011;2391;47.212;7.542;2022-12-24T02:03:38;1.20;;;0.73;;
4754;SDS011;2391;47.212;7.542;2022-12-24T02:06:04;10.67;;;1.13;;
4754;SDS011;2391;47.212;7.542;2022-12-24T02:08:30;0.77;;;0.77;;
4754;SDS011;2391;47.212;7.542;2022-12-24T02:11:10;0.77;;;0.70;;
4754;SDS011;2391;47.212;7.542;2022-12-24T02:13:49;1.30;;;0.80;;
4754;SDS011;2391;47.212;7.542;2022-12-24T02:21:43;4.00;;;0.60;;
4754;SDS011;2391;47.212;7.542;2022-12-24T02:24:31;3.63;;;0.83;;
4754;SDS011;2391;47.212;7.542;2022-12-24T02:32:49;1.33;;;0.60;;
4754;SDS011;2391;47.212;7.542;2022-12-24T02:35:20;1.03;;;0.70;;
4754;SDS011;2391;47.212;7.542;2022-12-24T02:37:57;0.73;;;0.73;;
4754;SDS011;2391;47.212;7.542;2022-12-24T02:40:40;0.63;;;0.63;;
4754;SDS011;2391;47.212;7.542;2022-12-24T02:43:08;5.30;;;1.07;;
4754;SDS011;2391;47.212;7.542;2022-12-24T02:45:34;2.43;;;0.80;;
4754;SDS011;2391;47.212;7.542;2022-12-24T02:48:03;0.70;;;0.70;;
4754;SDS011;2391;47.212;7.542;2022-12-24T02:50:30;0.70;;;0.70;;
4754;SDS011;2391;47.212;7.542;2022-12-24T02:52:56;0.70;;;0.60;;
4754;SDS011;2391;47.212;7.542;2022-12-24T03:01:16;1.80;;;0.60;;
4754;SDS011;2391;47.212;7.542;2022-12-24T03:07:06;1.70;;;0.60;;
4754;SDS011;2391;47.212;7.542;2022-12-24T03:09:42;0.87;;;0.80;;
4754;SDS011;2391;47.212;7.542;2022-12-24T03:12:09;0.90;;;0.80;;
4754;SDS011;2391;47.212;7.542;2022-12-24T03:14:37;0.50;;;0.50;;
4754;SDS011;2391;47.212;7.542;2022-12-24T03:17:05;0.63;;;0.60;;
4754;SDS011;2391;47.212;7.542;2022-12-24T03:19:32;0.80;;;0.60;;
4754;SDS011;2391;47.212;7.542;2022-12-24T03:21:59;0.70;;;0.60;;
4754;SDS011;2391;47.212;7.542;2022-12-24T03:24:28;1.20;;;0.80;;
4754;SDS011;2391;47.212;7.542;2022-12-24T03:26:54;1.60;;;0.67;;
4754;SDS011;2391;47.212;7.542;2022-12-24T03:29:21;3.80;;;0.60;;
4754;SDS011;2391;47.212;7.542;2022-12-24T03:31:48;0.50;;;0.50;;
4754;SDS011;2391;47.212;7.542;2022-12-24T03:34:16;3.30;;;0.50;;
4754;SDS011;2391;47.212;7.542;2022-12-24T03:36:43;0.50;;;0.50;;
4754;SDS011;2391;47.212;7.542;2022-12-24T03:39:09;0.50;;;0.50;;
4754;SDS011;2391;47.212;7.542;2022-12-24T03:41:36;0.60;;;0.60;;
4754;SDS011;2391;47.212;7.542;2022-12-24T03:44:02;1.23;;;0.57;;
4754;SDS011;2391;47.212;7.542;2022-12-24T03:46:28;0.50;;;0.50;;
4754;SDS011;2391;47.212;7.542;2022-12-24T03:48:54;1.30;;;0.70;;
4754;SDS011;2391;47.212;7.542;2022-12-24T03:51:21;2.20;;;0.60;;
4754;SDS011;2391;47.212;7.542;2022-12-24T03:53:50;0.50;;;0.50;;
4754;SDS011;2391;47.212;7.542;2022-12-24T03:56:17;1.63;;;0.60;;
4754;SDS011;2391;47.212;7.542;2022-12-24T03:58:43;1.00;;;0.60;;
4754;SDS011;2391;47.212;7.542;2022-12-24T04:01:09;1.30;;;0.40;;
4754;SDS011;2391;47.212;7.542;2022-12-24T04:03:36;2.87;;;0.50;;
4754;SDS011;2391;47.212;7.542;2022-12-24T04:06:02;0.60;;;0.40;;
4754;SDS011;2391;47.212;7.542;2022-12-24T04:08:33;0.60;;;0.40;;
4754;SDS011;2391;47.212;7.542;2022-12-24T04:11:00;0.40;;;0.40;;
4754;SDS011;2391;47.212;7.542;2022-12-24T04:13:27;0.40;;;0.40;;
4754;SDS011;2391;47.212;7.542;2022-12-24T04:16:01;1.47;;;0.50;;
4754;SDS011;2391;47.212;7.542;2022-12-24T04:18:24;0.87;;;0.60;;
4754;SDS011;2391;47.212;7.542;2022-12-24T04:20:50;0.50;;;0.50;;
4754;SDS011;2391;47.212;7.542;2022-12-24T04:23:16;1.77;;;0.40;;
4754;SDS011;2391;47.212;7.542;2022-12-24T04:25:43;3.07;;;0.50;;
4754;SDS011;2391;47.212;7.542;2022-12-24T04:28:09;0.53;;;0.50;;
4754;SDS011;2391;47.212;7.542;2022-12-24T04:30:36;0.90;;;0.40;;
4754;SDS011;2391;47.212;7.542;2022-12-24T04:33:03;1.20;;;0.50;;
4754;SDS011;2391;47.212;7.542;2022-12-24T04:35:29;2.00;;;0.80;;
4754;SDS011;2391;47.212;7.542;2022-12-24T04:37:56;1.07;;;0.60;;
4754;SDS011;2391;47.212;7.542;2022-12-24T04:40:22;1.00;;;0.50;;
4754;SDS011;2391;47.212;7.542;2022-12-24T04:42:48;0.97;;;0.50;;
4754;SDS011;2391;47.212;7.542;2022-12-24T04:45:15;0.77;;;0.77;;
4754;SDS011;2391;47.212;7.542;2022-12-24T04:47:42;1.40;;;0.60;;
4754;SDS011;2391;47.212;7.542;2022-12-24T04:50:08;2.90;;;0.70;;
4754;SDS011;2391;47.212;7.542;2022-12-24T04:52:35;2.60;;;0.60;;
4754;SDS011;2391;47.212;7.542;2022-12-24T04:55:02;4.70;;;0.70;;
4754;SDS011;2391;47.212;7.542;2022-12-24T04:57:32;2.40;;;0.67;;
4754;SDS011;2391;47.212;7.542;2022-12-24T05:00:00;2.17;;;0.70;;
4754;SDS011;2391;47.212;7.542;2022-12-24T05:02:27;1.13;;;0.60;;
4754;SDS011;2391;47.212;7.542;2022-12-24T05:04:53;1.00;;;0.83;;
4754;SDS011;2391;47.212;7.542;2022-12-24T05:07:19;0.80;;;0.57;;
4754;SDS011;2391;47.212;7.542;2022-12-24T05:09:45;1.37;;;0.73;;
4754;SDS011;2391;47.212;7.542;2022-12-24T05:12:11;1.23;;;0.50;;
4754;SDS011;2391;47.212;7.542;2022-12-24T05:14:38;1.50;;;0.70;;
4754;SDS011;2391;47.212;7.542;2022-12-24T05:17:04;2.00;;;0.60;;
4754;SDS011;2391;47.212;7.542;2022-12-24T05:19:30;1.77;;;0.60;;
4754;SDS011;2391;47.212;7.542;2022-12-24T05:21:57;2.40;;;0.77;;
4754;SDS011;2391;47.212;7.542;2022-12-24T05:24:41;2.73;;;1.43;;
4754;SDS011;2391;47.212;7.542;2022-12-24T05:27:26;1.90;;;0.50;;
4754;SDS011;2391;47.212;7.542;2022-12-24T05:29:52;5.60;;;0.53;;
4754;SDS011;2391;47.212;7.542;2022-12-24T05:32:18;1.43;;;0.60;;
4754;SDS011;2391;47.212;7.542;2022-12-24T05:34:44;0.67;;;0.50;;
4754;SDS011;2391;47.212;7.542;2022-12-24T05:37:10;2.90;;;0.70;;
4754;SDS011;2391;47.212;7.542;2022-12-24T05:39:36;1.73;;;0.73;;
4754;SDS011;2391;47.212;7.542;2022-12-24T05:42:03;2.33;;;0.77;;
4754;SDS011;2391;47.212;7.542;2022-12-24T05:44:29;1.40;;;0.50;;
4754;SDS011;2391;47.212;7.542;2022-12-24T05:46:54;1.73;;;0.50;;
4754;SDS011;2391;47.212;7.542;2022-12-24T05:49:20;2.80;;;0.70;;
4754;SDS011;2391;47.212;7.542;2022-12-24T05:51:46;3.17;;;0.90;;
4754;SDS011;2391;47.212;7.542;2022-12-24T05:54:15;2.53;;;0.60;;
4754;SDS011;2391;47.212;7.542;2022-12-24T05:56:41;1.40;;;0.70;;
4754;SDS011;2391;47.212;7.542;2022-12-24T05:59:07;1.93;;;0.67;;
4754;SDS011;2391;47.212;7.542;2022-12-24T06:01:33;3.30;;;0.60;;
4754;SDS011;2391;47.212;7.542;2022-12-24T06:04:00;2.47;;;0.53;;
4754;SDS011;2391;47.212;7.542;2022-12-24T06:06:26;2.57;;;0.67;;
4754;SDS011;2391;47.212;7.542;2022-12-24T06:08:53;2.70;;;0.70;;
4754;SDS011;2391;47.212;7.542;2022-12-24T06:11:21;0.87;;;0.40;;
4754;SDS011;2391;47.212;7.542;2022-12-24T06:13:49;0.43;;;0.40;;
4754;SDS011;2391;47.212;7.542;2022-12-24T06:16:17;1.93;;;0.50;;
4754;SDS011;2391;47.212;7.542;2022-12-24T06:18:44;0.60;;;0.40;;
4754;SDS011;2391;47.212;7.542;2022-12-24T06:21:11;1.50;;;0.77;;
4754;SDS011;2391;47.212;7.542;2022-12-24T06:23:38;1.17;;;0.70;;
4754;SDS011;2391;47.212;7.542;2022-12-24T06:26:06;1.80;;;0.70;;
4754;SDS011;2391;47.212;7.542;2022-12-24T06:28:34;0.70;;;0.40;;
4754;SDS011;2391;47.212;7.542;2022-12-24T06:31:02;2.40;;;0.53;;
4754;SDS011;2391;47.212;7.542;2022-12-24T06:33:29;2.57;;;0.47;;
4754;SDS011;2391;47.212;7.542;2022-12-24T06:35:55;0.93;;;0.50;;
4754;SDS011;2391;47.212;7.542;2022-12-24T06:38:22;1.50;;;0.60;;
4754;SDS011;2391;47.212;7.542;2022-12-24T06:40:48;0.60;;;0.50;;
4754;SDS011;2391;47.212;7.542;2022-12-24T06:43:14;2.80;;;0.50;;
4754;SDS011;2391;47.212;7.542;2022-12-24T06:45:44;1.03;;;0.60;;
4754;SDS011;2391;47.212;7.542;2022-12-24T06:48:12;1.10;;;0.53;;
4754;SDS011;2391;47.212;7.542;2022-12-24T06:50:38;0.87;;;0.47;;
4754;SDS011;2391;47.212;7.542;2022-12-24T06:53:05;0.60;;;0.50;;
4754;SDS011;2391;47.212;7.542;2022-12-24T06:55:32;2.30;;;0.40;;
4754;SDS011;2391;47.212;7.542;2022-12-24T06:57:57;5.03;;;0.50;;
4754;SDS011;2391;47.212;7.542;2022-12-24T07:00:23;0.90;;;0.70;;
4754;SDS011;2391;47.212;7.542;2022-12-24T07:02:49;3.43;;;0.70;;
4754;SDS011;2391;47.212;7.542;2022-12-24T07:05:15;1.13;;;0.60;;
4754;SDS011;2391;47.212;7.542;2022-12-24T07:07:42;3.33;;;0.70;;
4754;SDS011;2391;47.212;7.542;2022-12-24T07:10:10;1.17;;;0.50;;
4754;SDS011;2391;47.212;7.542;2022-12-24T07:12:37;3.90;;;0.90;;
4754;SDS011;2391;47.212;7.542;2022-12-24T07:15:04;3.20;;;0.83;;
4754;SDS011;2391;47.212;7.542;2022-12-24T07:17:31;0.80;;;0.60;;
4754;SDS011;2391;47.212;7.542;2022-12-24T07:19:57;1.00;;;0.80;;
4754;SDS011;2391;47.212;7.542;2022-12-24T07:22:23;2.00;;;0.80;;
4754;SDS011;2391;47.212;7.542;2022-12-24T07:24:49;2.20;;;0.70;;
4754;SDS011;2391;47.212;7.542;2022-12-24T07:27:15;1.37;;;0.67;;
4754;SDS011;2391;47.212;7.542;2022-12-24T07:29:41;3.60;;;0.90;;
4754;SDS011;2391;47.212;7.542;2022-12-24T07:32:07;1.77;;;0.50;;
4754;SDS011;2391;47.212;7.542;2022-12-24T07:34:33;0.60;;;0.60;;
4754;SDS011;2391;47.212;7.542;2022-12-24T07:37:00;2.80;;;0.80;;
4754;SDS011;2391;47.212;7.542;2022-12-24T07:39:26;5.60;;;0.80;;
4754;SDS011;2391;47.212;7.542;2022-12-24T07:41:52;1.70;;;0.70;;
4754;SDS011;2391;47.212;7.542;2022-12-24T07:44:17;2.80;;;0.80;;
4754;SDS011;2391;47.212;7.542;2022-12-24T07:46:43;0.77;;;0.77;;
4754;SDS011;2391;47.212;7.542;2022-12-24T07:49:09;2.20;;;0.90;;
4754;SDS011;2391;47.212;7.542;2022-12-24T07:51:36;1.90;;;0.90;;
4754;SDS011;2391;47.212;7.542;2022-12-24T07:54:02;1.67;;;0.80;;
4754;SDS011;2391;47.212;7.542;2022-12-24T07:56:32;2.10;;;0.77;;
4754;SDS011;2391;47.212;7.542;2022-12-24T07:58:58;0.73;;;0.73;;
4754;SDS011;2391;47.212;7.542;2022-12-24T08:01:24;1.90;;;1.07;;
4754;SDS011;2391;47.212;7.542;2022-12-24T08:03:50;1.17;;;0.90;;
4754;SDS011;2391;47.212;7.542;2022-12-24T08:06:19;1.60;;;1.00;;
4754;SDS011;2391;47.212;7.542;2022-12-24T08:08:45;5.33;;;0.80;;
4754;SDS011;2391;47.212;7.542;2022-12-24T08:11:12;1.73;;;0.80;;
4754;SDS011;2391;47.212;7.542;2022-12-24T08:13:39;0.90;;;0.77;;
4754;SDS011;2391;47.212;7.542;2022-12-24T08:16:05;1.97;;;0.70;;
4754;SDS011;2391;47.212;7.542;2022-12-24T08:18:31;1.50;;;0.80;;
4754;SDS011;2391;47.212;7.542;2022-12-24T08:20:57;0.60;;;0.60;;
4754;SDS011;2391;47.212;7.542;2022-12-24T08:23:24;2.30;;;0.70;;
4754;SDS011;2391;47.212;7.542;2022-12-24T08:25:50;2.90;;;0.60;;
4754;SDS011;2391;47.212;7.542;2022-12-24T08:28:17;2.43;;;0.80;;
4754;SDS011;2391;47.212;7.542;2022-12-24T08:30:46;2.73;;;0.70;;
4754;SDS011;2391;47.212;7.542;2022-12-24T08:33:13;2.67;;;0.80;;
4754;SDS011;2391;47.212;7.542;2022-12-24T08:35:39;1.57;;;1.00;;
4754;SDS011;2391;47.212;7.542;2022-12-24T08:38:05;3.43;;;0.80;;
4754;SDS011;2391;47.212;7.542;2022-12-24T08:40:31;2.00;;;1.00;;
4754;SDS011;2391;47.212;7.542;2022-12-24T08:42:57;2.33;;;0.90;;
4754;SDS011;2391;47.212;7.542;2022-12-24T08:45:23;0.80;;;0.80;;
4754;SDS011;2391;47.212;7.542;2022-12-24T08:47:49;0.83;;;0.83;;
4754;SDS011;2391;47.212;7.542;2022-12-24T08:50:15;1.30;;;0.90;;
4754;SDS011;2391;47.212;7.542;2022-12-24T08:52:41;4.27;;;1.10;;
4754;SDS011;2391;47.212;7.542;2022-12-24T08:55:07;0.70;;;0.70;;
4754;SDS011;2391;47.212;7.542;2022-12-24T08:57:34;1.30;;;1.20;;
4754;SDS011;2391;47.212;7.542;2022-12-24T09:00:03;3.60;;;1.10;;
4754;SDS011;2391;47.212;7.542;2022-12-24T09:02:31;1.27;;;0.90;;
4754;SDS011;2391;47.212;7.542;2022-12-24T09:04:57;2.33;;;0.97;;
4754;SDS011;2391;47.212;7.542;2022-12-24T09:07:23;0.97;;;0.97;;
4754;SDS011;2391;47.212;7.542;2022-12-24T09:09:49;5.37;;;1.10;;
4754;SDS011;2391;47.212;7.542;2022-12-24T09:12:16;1.20;;;1.10;;
4754;SDS011;2391;47.212;7.542;2022-12-24T09:14:42;3.33;;;2.10;;
4754;SDS011;2391;47.212;7.542;2022-12-24T09:17:08;3.00;;;1.57;;
4754;SDS011;2391;47.212;7.542;2022-12-24T09:19:34;2.63;;;2.43;;
4754;SDS011;2391;47.212;7.542;2022-12-24T09:22:00;2.57;;;2.10;;
4754;SDS011;2391;47.212;7.542;2022-12-24T09:24:27;2.10;;;1.83;;
4754;SDS011;2391;47.212;7.542;2022-12-24T09:26:53;2.13;;;1.97;;
4754;SDS011;2391;47.212;7.542;2022-12-24T09:29:19;3.47;;;1.80;;
4754;SDS011;2391;47.212;7.542;2022-12-24T09:31:45;1.70;;;1.60;;
4754;SDS011;2391;47.212;7.542;2022-12-24T09:34:11;3.53;;;1.67;;
4754;SDS011;2391;47.212;7.542;2022-12-24T09:36:37;1.50;;;1.40;;
4754;SDS011;2391;47.212;7.542;2022-12-24T09:39:03;1.70;;;1.50;;
4754;SDS011;2391;47.212;7.542;2022-12-24T09:42:16;1.27;;;1.17;;
4754;SDS011;2391;47.212;7.542;2022-12-24T09:47:09;7.90;;;1.57;;
4754;SDS011;2391;47.212;7.542;2022-12-24T09:49:38;4.03;;;1.10;;
4754;SDS011;2391;47.212;7.542;2022-12-24T09:52:07;1.50;;;1.20;;
4754;SDS011;2391;47.212;7.542;2022-12-24T09:54:40;1.73;;;1.03;;
4754;SDS011;2391;47.212;7.542;2022-12-24T09:57:28;1.73;;;1.37;;
4754;SDS011;2391;47.212;7.542;2022-12-24T09:59:57;2.00;;;1.33;;
4754;SDS011;2391;47.212;7.542;2022-12-24T10:02:23;5.43;;;1.40;;
4754;SDS011;2391;47.212;7.542;2022-12-24T10:04:49;1.73;;;1.40;;
4754;SDS011;2391;47.212;7.542;2022-12-24T10:15:39;1.73;;;1.10;;
4754;SDS011;2391;47.212;7.542;2022-12-24T10:23:57;2.53;;;1.20;;
4754;SDS011;2391;47.212;7.542;2022-12-24T10:26:33;2.30;;;1.47;;
4754;SDS011;2391;47.212;7.542;2022-12-24T10:29:13;1.77;;;1.57;;
4754;SDS011;2391;47.212;7.542;2022-12-24T10:31:55;1.73;;;1.50;;
4754;SDS011;2391;47.212;7.542;2022-12-24T10:34:37;1.93;;;1.83;;
4754;SDS011;2391;47.212;7.542;2022-12-24T10:37:05;1.57;;;1.20;;
4754;SDS011;2391;47.212;7.542;2022-12-24T10:39:31;1.30;;;1.20;;
4754;SDS011;2391;47.212;7.542;2022-12-24T10:41:58;1.37;;;1.23;;
4754;SDS011;2391;47.212;7.542;2022-12-24T10:44:25;1.50;;;1.40;;
4754;SDS011;2391;47.212;7.542;2022-12-24T10:46:54;4.90;;;1.50;;
4754;SDS011;2391;47.212;7.542;2022-12-24T10:49:25;2.00;;;1.20;;
4754;SDS011;2391;47.212;7.542;2022-12-24T10:52:04;3.43;;;1.40;;
4754;SDS011;2391;47.212;7.542;2022-12-24T10:54:33;2.20;;;1.37;;
4754;SDS011;2391;47.212;7.542;2022-12-24T10:57:01;3.33;;;1.90;;
4754;SDS011;2391;47.212;7.542;2022-12-24T10:59:40;1.50;;;1.40;;
4754;SDS011;2391;47.212;7.542;2022-12-24T11:02:23;1.80;;;1.20;;
4754;SDS011;2391;47.212;7.542;2022-12-24T11:04:53;1.27;;;1.17;;
4754;SDS011;2391;47.212;7.542;2022-12-24T11:07:20;3.70;;;1.40;;
4754;SDS011;2391;47.212;7.542;2022-12-24T11:09:58;1.00;;;1.00;;
4754;SDS011;2391;47.212;7.542;2022-12-24T11:15:06;1.50;;;1.40;;
4754;SDS011;2391;47.212;7.542;2022-12-24T11:17:37;1.60;;;1.50;;
4754;SDS011;2391;47.212;7.542;2022-12-24T11:20:05;1.57;;;1.23;;
4754;SDS011;2391;47.212;7.542;2022-12-24T11:22:33;2.20;;;1.40;;
4754;SDS011;2391;47.212;7.542;2022-12-24T11:25:04;3.83;;;1.20;;
4754;SDS011;2391;47.212;7.542;2022-12-24T11:27:42;3.53;;;1.20;;
4754;SDS011;2391;47.212;7.542;2022-12-24T11:32:45;2.00;;;1.03;;
4754;SDS011;2391;47.212;7.542;2022-12-24T11:35:19;1.20;;;1.20;;
4754;SDS011;2391;47.212;7.542;2022-12-24T11:37:43;1.80;;;0.70;;
4754;SDS011;2391;47.212;7.542;2022-12-24T11:40:20;1.10;;;0.90;;
4754;SDS011;2391;47.212;7.542;2022-12-24T11:42:46;0.80;;;0.80;;
4754;SDS011;2391;47.212;7.542;2022-12-24T11:45:22;1.57;;;0.90;;
4754;SDS011;2391;47.212;7.542;2022-12-24T11:47:53;0.80;;;0.80;;
4754;SDS011;2391;47.212;7.542;2022-12-24T11:53:19;0.80;;;0.60;;
4754;SDS011;2391;47.212;7.542;2022-12-24T11:55:57;1.10;;;0.80;;
4754;SDS011;2391;47.212;7.542;2022-12-24T12:01:17;7.43;;;4.73;;
4754;SDS011;2391;47.212;7.542;2022-12-24T12:03:49;12.87;;;5.97;;
4754;SDS011;2391;47.212;7.542;2022-12-24T12:09:06;4.63;;;3.67;;
4754;SDS011;2391;47.212;7.542;2022-12-24T12:11:45;3.57;;;2.70;;
4754;SDS011;2391;47.212;7.542;2022-12-24T12:14:16;2.10;;;1.90;;
4754;SDS011;2391;47.212;7.542;2022-12-24T12:19:33;2.33;;;0.90;;
4754;SDS011;2391;47.212;7.542;2022-12-24T12:21:58;2.20;;;0.60;;
4754;SDS011;2391;47.212;7.542;2022-12-24T12:24:29;0.80;;;0.60;;
4754;SDS011;2391;47.212;7.542;2022-12-24T12:27:06;0.90;;;0.80;;
4754;SDS011;2391;47.212;7.542;2022-12-24T12:29:38;0.63;;;0.63;;
4754;SDS011;2391;47.212;7.542;2022-12-24T12:32:06;1.03;;;0.50;;
4754;SDS011;2391;47.212;7.542;2022-12-24T12:37:15;0.63;;;0.63;;
4754;SDS011;2391;47.212;7.542;2022-12-24T12:39:55;0.50;;;0.50;;
4754;SDS011;2391;47.212;7.542;2022-12-24T12:53:12;0.60;;;0.60;;
4754;SDS011;2391;47.212;7.542;2022-12-24T12:55:46;1.80;;;0.80;;
4754;SDS011;2391;47.212;7.542;2022-12-24T12:58:19;1.43;;;0.80;;
4754;SDS011;2391;47.212;7.542;2022-12-24T13:00:47;3.97;;;0.80;;
4754;SDS011;2391;47.212;7.542;2022-12-24T13:20:23;3.07;;;1.00;;
4754;SDS011;2391;47.212;7.542;2022-12-24T13:22:53;2.80;;;1.13;;
4754;SDS011;2391;47.212;7.542;2022-12-24T13:25:20;4.10;;;1.40;;
4754;SDS011;2391;47.212;7.542;2022-12-24T13:27:49;1.60;;;1.33;;
4754;SDS011;2391;47.212;7.542;2022-12-24T13:30:32;1.23;;;1.13;;
4754;SDS011;2391;47.212;7.542;2022-12-24T13:33:03;1.20;;;1.10;;
4754;SDS011;2391;47.212;7.542;2022-12-24T13:35:33;3.53;;;1.40;;
4754;SDS011;2391;47.212;7.542;2022-12-24T13:41:01;1.10;;;1.10;;
4754;SDS011;2391;47.212;7.542;2022-12-24T13:49:36;7.83;;;2.20;;
4754;SDS011;2391;47.212;7.542;2022-12-24T13:54:45;11.00;;;2.60;;
4754;SDS011;2391;47.212;7.542;2022-12-24T13:57:30;2.30;;;1.17;;
4754;SDS011;2391;47.212;7.542;2022-12-24T13:59:59;1.03;;;0.80;;
4754;SDS011;2391;47.212;7.542;2022-12-24T14:02:32;0.70;;;0.70;;
4754;SDS011;2391;47.212;7.542;2022-12-24T14:05:01;0.83;;;0.80;;
4754;SDS011;2391;47.212;7.542;2022-12-24T14:07:29;0.97;;;0.60;;
4754;SDS011;2391;47.212;7.542;2022-12-24T14:09:57;1.20;;;1.10;;
4754;SDS011;2391;47.212;7.542;2022-12-24T14:12:31;0.93;;;0.93;;
4754;SDS011;2391;47.212;7.542;2022-12-24T14:18:09;2.50;;;1.60;;
4754;SDS011;2391;47.212;7.542;2022-12-24T14:20:36;1.93;;;1.83;;
4754;SDS011;2391;47.212;7.542;2022-12-24T14:23:03;2.20;;;2.10;;
4754;SDS011;2391;47.212;7.542;2022-12-24T14:25:31;1.80;;;1.70;;
4754;SDS011;2391;47.212;7.542;2022-12-24T14:27:58;1.83;;;1.37;;
4754;SDS011;2391;47.212;7.542;2022-12-24T14:30:28;8.60;;;2.70;;
4754;SDS011;2391;47.212;7.542;2022-12-24T14:32:55;8.90;;;2.30;;
4754;SDS011;2391;47.212;7.542;2022-12-24T14:37:51;4.13;;;1.63;;
4754;SDS011;2391;47.212;7.542;2022-12-24T14:40:39;2.23;;;1.10;;
4754;SDS011;2391;47.212;7.542;2022-12-24T14:56:17;1.00;;;1.00;;
4754;SDS011;2391;47.212;7.542;2022-12-24T14:58:45;1.50;;;1.40;;
4754;SDS011;2391;47.212;7.542;2022-12-24T15:01:24;1.50;;;1.40;;
4754;SDS011;2391;47.212;7.542;2022-12-24T15:06:32;1.20;;;1.10;;
4754;SDS011;2391;47.212;7.542;2022-12-24T15:09:01;0.97;;;0.97;;
4754;SDS011;2391;47.212;7.542;2022-12-24T15:11:27;1.63;;;1.20;;
4754;SDS011;2391;47.212;7.542;2022-12-24T15:13:56;6.40;;;2.63;;
4754;SDS011;2391;47.212;7.542;2022-12-24T15:16:31;1.30;;;1.20;;
4754;SDS011;2391;47.212;7.542;2022-12-24T15:19:00;1.90;;;1.40;;
4754;SDS011;2391;47.212;7.542;2022-12-24T15:21:30;1.17;;;1.07;;
4754;SDS011;2391;47.212;7.542;2022-12-24T15:23:58;1.10;;;1.00;;
4754;SDS011;2391;47.212;7.542;2022-12-24T15:28:57;1.10;;;1.10;;
4754;SDS011;2391;47.212;7.542;2022-12-24T15:31:25;0.97;;;0.97;;
4754;SDS011;2391;47.212;7.542;2022-12-24T15:33:53;2.83;;;1.00;;
4754;SDS011;2391;47.212;7.542;2022-12-24T15:36:27;1.13;;;1.03;;
4754;SDS011;2391;47.212;7.542;2022-12-24T15:38:53;1.20;;;1.10;;
4754;SDS011;2391;47.212;7.542;2022-12-24T15:41:22;0.93;;;0.93;;
4754;SDS011;2391;47.212;7.542;2022-12-24T15:43:53;1.10;;;1.00;;
4754;SDS011;2391;47.212;7.542;2022-12-24T15:46:22;1.30;;;1.20;;
4754;SDS011;2391;47.212;7.542;2022-12-24T15:48:51;1.53;;;1.43;;
4754;SDS011;2391;47.212;7.542;2022-12-24T15:51:23;1.30;;;1.30;;
4754;SDS011;2391;47.212;7.542;2022-12-24T15:54:04;1.73;;;1.63;;
4754;SDS011;2391;47.212;7.542;2022-12-24T16:01:42;1.53;;;1.43;;
4754;SDS011;2391;47.212;7.542;2022-12-24T16:04:13;7.23;;;1.50;;
4754;SDS011;2391;47.212;7.542;2022-12-24T16:06:58;2.30;;;2.10;;
4754;SDS011;2391;47.212;7.542;2022-12-24T16:09:50;1.83;;;1.73;;
4754;SDS011;2391;47.212;7.542;2022-12-24T16:12:02;2.73;;;2.40;;
4754;SDS011;2391;47.212;7.542;2022-12-24T16:14:28;3.47;;;2.10;;
4754;SDS011;2391;47.212;7.542;2022-12-24T16:16:56;3.67;;;2.60;;
4754;SDS011;2391;47.212;7.542;2022-12-24T16:19:24;2.53;;;2.20;;
4754;SDS011;2391;47.212;7.542;2022-12-24T16:22:01;3.30;;;3.00;;
4754;SDS011;2391;47.212;7.542;2022-12-24T16:24:46;2.67;;;2.47;;
4754;SDS011;2391;47.212;7.542;2022-12-24T16:27:12;3.23;;;2.87;;
4754;SDS011;2391;47.212;7.542;2022-12-24T16:29:39;2.23;;;2.13;;
4754;SDS011;2391;47.212;7.542;2022-12-24T16:32:05;3.13;;;2.93;;
4754;SDS011;2391;47.212;7.542;2022-12-24T16:34:31;2.50;;;2.40;;
4754;SDS011;2391;47.212;7.542;2022-12-24T16:36:57;2.70;;;2.43;;
4754;SDS011;2391;47.212;7.542;2022-12-24T16:39:26;3.93;;;2.70;;
4754;SDS011;2391;47.212;7.542;2022-12-24T16:41:57;2.43;;;2.33;;
4754;SDS011;2391;47.212;7.542;2022-12-24T16:44:44;5.73;;;3.30;;
4754;SDS011;2391;47.212;7.542;2022-12-24T16:47:16;2.60;;;2.50;;
4754;SDS011;2391;47.212;7.542;2022-12-24T16:49:40;2.60;;;2.40;;
4754;SDS011;2391;47.212;7.542;2022-12-24T16:52:09;2.60;;;2.40;;
4754;SDS011;2391;47.212;7.542;2022-12-24T16:54:42;2.83;;;2.50;;
4754;SDS011;2391;47.212;7.542;2022-12-24T16:57:08;3.97;;;3.67;;
4754;SDS011;2391;47.212;7.542;2022-12-24T16:59:35;4.23;;;3.30;;
4754;SDS011;2391;47.212;7.542;2022-12-24T17:02:02;4.67;;;3.53;;
4754;SDS011;2391;47.212;7.542;2022-12-24T17:04:30;5.87;;;4.90;;
4754;SDS011;2391;47.212;7.542;2022-12-24T17:06:57;7.37;;;6.10;;
4754;SDS011;2391;47.212;7.542;2022-12-24T17:09:24;8.63;;;6.43;;
4754;SDS011;2391;47.212;7.542;2022-12-24T17:11:51;10.23;;;7.67;;
4754;SDS011;2391;47.212;7.542;2022-12-24T17:14:17;7.20;;;5.80;;
4754;SDS011;2391;47.212;7.542;2022-12-24T17:16:43;6.27;;;5.67;;
4754;SDS011;2391;47.212;7.542;2022-12-24T17:19:09;5.33;;;4.47;;
4754;SDS011;2391;47.212;7.542;2022-12-24T17:21:35;6.30;;;5.23;;
4754;SDS011;2391;47.212;7.542;2022-12-24T17:24:01;5.90;;;4.77;;
4754;SDS011;2391;47.212;7.542;2022-12-24T17:26:27;4.67;;;3.60;;
4754;SDS011;2391;47.212;7.542;2022-12-24T17:28:53;3.73;;;3.43;;
4754;SDS011;2391;47.212;7.542;2022-12-24T17:31:20;2.60;;;2.40;;
4754;SDS011;2391;47.212;7.542;2022-12-24T17:33:47;2.90;;;2.70;;
4754;SDS011;2391;47.212;7.542;2022-12-24T17:36:15;2.10;;;2.00;;